EHAMGCTS

Guest
Details From EHAM - Schiphol
To GCTS - Tenerife Sur
Flight Number -
Tags decoded
Created
Modified
Stats Distance 1,753 nm / 3,246 km
Max Altitude 0 ft / 0 m
Waypoints 9
Social Downloads 1
Likes 0
Share VATSIM

Download

Looking for another format? Having issues loading an existing format? Contact us
Advertisement - Login to hide

Notes

Requested: EHAM LEKKO UN872 ATLEN ABUPI BEXAL UN866 KONBA GCTS Unmatched points: UN872

Route

EHAM LEKKO ATLEN ABUPI BEXAL UN866 KONBA GCTS

ID Type Via Altitude Latitude Longitude Leg Dist Tot Dist Heading (true) Name
O EHAM APT - 0 ft / 0 m 52.31485˚ 4.75812˚ - 0 nm - Schiphol
LEKKO FIX - 0 ft / 0 m 51.92417˚ 4.76733˚ 23 nm 23 nm 179° / 179° -
ATLEN FIX - 0 ft / 0 m 44.50536˚ -4.94753˚ 590 nm 613 nm 225° / 218° -
ABUPI FIX - 0 ft / 0 m 41.75111˚ -7.23611˚ 193 nm 807 nm 212° / 210° -
BEXAL FIX - 0 ft / 0 m 35.96667˚ -11.44833˚ 399 nm 1206 nm 211° / 208° -
KUBIL FIX UN866 (AWY-HI) 0 ft / 0 m 34.26111˚ -12.91167˚ 125 nm 1331 nm 215° / 215° -
LUPEX FIX UN866 (AWY-HI) 0 ft / 0 m 32.99750˚ -13.95500˚ 92 nm 1423 nm 215° / 214° -
KONBA FIX UN866 (AWY-HI) 0 ft / 0 m 31.30083˚ -15.30167˚ 122 nm 1546 nm 214° / 214° -
O GCTS APT - 0 ft / 0 m 28.04448˚ -16.57249˚ 206 nm 1752 nm 199° / 198° Tenerife Sur

Altitude Profile

Advertisement - Login to hide

Weather


0- 5 10 15 20 25 30 35+ Temperature / ° C

Clouds and Precipitation
Forecast for 2018-05-26 00:00 UTC. Updated 5 hours ago

Ground ~20,000 ft ~40,000 ft Winds

EHAM

Details ICAO EHAM (AMS)
Name Schiphol
Region Netherlands
Timezone Europe/Amsterdam (UTC+2.0)
Stats Elevation -11 ft / -3 m (AMSL)
Location 52.314850° 4.758121°
Runways 6
Magnetic Variation 1.194° E

METAR

EHAM 260425Z 07004KT CAVOK 16/14 Q1019 NOSIG

Decode

TAF

TAF EHAM 252246Z 2600/2706 05006KT CAVOK BECMG 2609/2612 08011KT= TAF EHRD 252246Z 2600/2706 04004KT 4000 BR NSC BECMG 2600/2603 6000 NSW BECMG 2604/2606 CAVOK BECMG 2608/2611 08010KT

Decode

Departure Runways

ID Width Length Bearing (true) Bearing (mag) Surface Threshold Offset Overrun Length
04 148 ft / 45 m 6,620 ft / 2,018 m 41.18° 39.99° Asphalt 0 ft / 0 m 0 ft / 0 m
06 161 ft / 49 m 11,439 ft / 3,487 m 57.80° 56.61° Asphalt 820 ft / 250 m 0 ft / 0 m
09 164 ft / 50 m 11,310 ft / 3,447 m 86.77° 85.58° Asphalt 384 ft / 117 m 0 ft / 0 m
18C 161 ft / 49 m 10,842 ft / 3,305 m 183.20° 182.01° Asphalt 0 ft / 0 m 0 ft / 0 m
18L 164 ft / 50 m 11,146 ft / 3,397 m 183.17° 181.98° Asphalt 1,857 ft / 566 m 0 ft / 0 m
18R 184 ft / 56 m 12,497 ft / 3,809 m 183.16° 181.97° Asphalt 886 ft / 270 m 0 ft / 0 m
22 148 ft / 45 m 6,620 ft / 2,018 m 221.20° 220.01° Asphalt 0 ft / 0 m 915 ft / 279 m
24 161 ft / 49 m 11,439 ft / 3,487 m 237.83° 236.64° Asphalt 0 ft / 0 m 0 ft / 0 m
27 164 ft / 50 m 11,310 ft / 3,447 m 266.81° 265.62° Asphalt 0 ft / 0 m 0 ft / 0 m
36C 161 ft / 49 m 10,842 ft / 3,305 m 3.20° 2.01° Asphalt 1,476 ft / 450 m 0 ft / 0 m
36L 184 ft / 56 m 12,497 ft / 3,809 m 3.16° 1.97° Asphalt 0 ft / 0 m 0 ft / 0 m
36R 164 ft / 50 m 11,146 ft / 3,397 m 3.17° 1.98° Asphalt 0 ft / 0 m 0 ft / 0 m

GCTS

Details ICAO GCTS (TFS)
Name Tenerife Sur
Region Canary Islands
Timezone Atlantic/Canary (UTC+1.0)
Stats Elevation 209 ft / 64 m (AMSL)
Location 28.044475° -16.572488°
Runways 1
Magnetic Variation 5.065° W

METAR

GCTS 260430Z 08007KT 9999 FEW033 SCT055 BKN060 18/14 Q1017 NOSIG

Decode

TAF

TAF GCTS 260200Z 2603/2703 VRB05KT 9999 SCT040 TX24/2614Z TN17/2605Z BECMG 2612/2614 09010KT

Decode

Destination Runways

ID Width Length Bearing (true) Bearing (mag) Surface Threshold Offset Overrun Length
08 148 ft / 45 m 10,489 ft / 3,197 m 68.47° 73.54° Asphalt 0 ft / 0 m 0 ft / 0 m
26 148 ft / 45 m 10,489 ft / 3,197 m 248.49° 253.56° Asphalt 0 ft / 0 m 0 ft / 0 m

Approach Navaids

Runway Type Ident Frequency Range Bearing (true) Bearing (mag) Slope Elevation
08 Localiser TRS 109.70 MHz 18 nm / 33 km 68.49° 73.56° - 187 ft / 57 m (AMSL)
08 Glidescope TRS 109.70 MHz 10 nm / 19 km 68.48° 73.55° 3.00° 209 ft / 64 m (AMSL)
26 Localiser ISUR 110.90 MHz 18 nm / 33 km 248.52° 253.58° - 209 ft / 64 m (AMSL)
26 Glidescope ISUR 110.90 MHz 10 nm / 19 km 248.48° 253.55° 3.00° 236 ft / 72 m (AMSL)
26 DME ISUR 110.90 MHz 18 nm / 33 km - - - 236 ft / 72 m (AMSL)

Popular Alternatives